Latest Weather Observations for Maroochydore

IDQ60801

Issued at 4:35 pm EST Wednesday 20 August 2014 (issued every 30 minutes, with the page automatically refreshed every 10 minutes)

About weather observations | Map of weather stations | Latest weather observations for QLD | Other Formats
Station Details ID: 040861 Name: SUNSHINE COAST AIRPORT Lat: -26.60 Lon: 153.09 Height: 3.3 m
Data from the previous 72 hours. | See also: Recent months at Maroochydore
Date/Time
EST
Temp
°C
App
Temp
°C
Dew
Point
Rel
Hum
%
Delta-T
°C
Wind Press
QNH
hPa
Press
MSL
hPa
Rain
since 9 am
mm
Dir
 
Spd
km/h
Gust
km/h
Spd
kts
Gust
kts
20/04:30pm 19.4 15.5 12.2 63 4.0 SE 24 32 13 17 1018.9 - 0.0
20/04:00pm 20.0 17.5 12.3 61 4.3 ESE 17 20 9 11 1018.8 - 0.0
20/03:30pm 20.1 17.4 11.6 58 4.7 SE 17 20 9 11 1018.6 - 0.0
20/03:00pm 20.4 17.5 11.1 55 5.1 SE 17 22 9 12 1018.5 1018.5 0.0
20/02:30pm 20.5 16.8 10.3 52 5.5 SE 20 26 11 14 1018.5 - 0.0
20/02:00pm 20.7 17.2 10.8 53 5.4 SE 20 26 11 14 1018.5 - 0.0
20/01:30pm 20.6 16.2 10.4 52 5.5 SE 24 30 13 16 1018.5 - 0.0
20/01:00pm 20.8 16.4 10.3 51 5.7 SE 24 30 13 16 1018.8 - 0.0
20/12:30pm 21.0 16.4 9.6 48 6.1 SE 24 33 13 18 1018.9 - 0.0
20/12:00pm 21.1 16.8 10.6 51 5.7 SE 24 32 13 17 1019.1 1019.1 0.0
20/11:30am 20.5 16.0 10.0 51 5.6 SE 24 30 13 16 1019.3 - 0.0
20/11:00am 20.6 15.6 9.5 49 5.9 SE 26 33 14 18 1019.7 - 0.0
20/10:30am 20.5 15.7 8.8 47 6.2 SSE 24 33 13 18 1019.8 - 0.0
20/10:00am 21.2 17.4 9.8 48 6.1 SSE 20 30 11 16 1019.9 - 0.0
20/09:30am 19.9 14.6 8.6 48 5.9 SSE 26 33 14 18 1019.7 - 0.0
20/09:00am 19.0 15.1 8.6 51 5.4 S 19 24 10 13 1019.9 1019.9 0.0
20/08:30am 18.2 14.7 8.7 54 4.9 SSW 17 24 9 13 1019.8 - 0.0
20/08:00am 17.0 14.2 9.9 63 3.7 SSW 15 20 8 11 1019.8 - 0.0
20/07:30am 14.3 12.5 10.7 79 1.9 SW 11 13 6 7 1019.5 - 0.0
20/07:00am 11.6 9.5 9.9 89 0.9 SW 11 13 6 7 1019.1 - 0.0
20/06:30am 7.9 5.5 6.8 93 0.5 SW 9 11 5 6 1018.9 - 0.0
20/06:00am 7.8 4.9 6.7 93 0.5 WNW 11 11 6 6 1018.7 1018.7 0.0
20/05:30am 7.5 5.3 6.3 92 0.5 WSW 7 9 4 5 1018.0 - 0.0
20/05:00am 7.6 5.4 6.2 91 0.6 SW 7 9 4 5 1017.5 - 0.0
20/04:30am 8.1 5.6 6.7 91 0.6 WSW 9 11 5 6 1017.3 - 0.0
20/04:00am 8.4 6.4 6.9 90 0.7 W 7 9 4 5 1017.0 - 0.0
20/03:30am 8.8 6.0 7.1 89 0.8 WNW 11 13 6 7 1016.9 - 0.0
20/03:00am 9.9 7.3 7.7 86 1.1 W 11 13 6 7 1016.6 1016.6 0.0
20/02:30am 8.7 6.5 6.0 83 1.2 W 7 9 4 5 1016.7 - 0.0
20/02:00am 11.2 9.0 7.9 80 1.6 SW 9 11 5 6 1016.6 - 0.0
20/01:30am 10.4 8.2 6.4 76 1.9 WSW 7 11 4 6 1016.7 - 0.0
20/01:00am 13.0 10.0 7.9 71 2.5 SSW 13 15 7 8 1016.6 - 0.0
20/12:30am 13.2 10.7 8.1 71 2.5 SSW 11 13 6 7 1016.5 - 0.0
20/12:00am 12.7 9.8 8.2 74 2.2 SW 13 15 7 8 1016.3 1016.3 0.0
 
Date/Time
EST
Temp
°C
App
Temp
°C
Dew
Point
Rel
Hum
%
Delta-T
°C
Wind Press
QNH
hPa
Press
MSL
hPa
Rain
since 9 am
mm
Dir
 
Spd
km/h
Gust
km/h
Spd
kts
Gust
kts
19/11:30pm 11.3 8.9 7.2 76 2.0 SW 9 11 5 6 1016.3 - 0.0
19/11:00pm 11.2 8.9 7.3 77 1.9 SW 9 13 5 7 1016.4 - 0.0
19/10:30pm 11.1 8.6 6.6 74 2.1 WSW 9 13 5 7 1016.2 - 0.0
19/10:00pm 13.0 10.3 7.5 69 2.7 SW 11 15 6 8 1016.3 - 0.0
19/09:30pm 13.8 12.0 7.8 67 3.0 SW 7 11 4 6 1016.3 - 0.0
19/09:00pm 11.9 10.6 7.8 76 2.0 W 4 11 2 6 1016.4 1016.4 0.0
19/08:30pm 13.3 12.6 6.9 65 3.1 CALM 0 0 0 0 1016.1 - 0.0
19/08:00pm 15.1 12.7 6.9 58 4.0 SSW 9 11 5 6 1015.9 - 0.0
19/07:30pm 15.9 13.5 7.1 56 4.3 SSW 9 13 5 7 1015.6 - 0.0
19/07:00pm 16.8 13.3 7.2 53 4.8 WSW 15 20 8 11 1015.0 - 0.0
19/06:30pm 16.4 14.5 6.8 53 4.7 WSW 6 7 3 4 1014.4 - 0.0
19/06:00pm 17.5 15.3 6.4 48 5.5 WSW 7 13 4 7 1013.9 1013.9 0.0
19/05:30pm 18.1 15.0 7.2 49 5.5 W 13 19 7 10 1013.3 - 0.0
19/05:00pm 19.9 16.4 7.3 44 6.4 WSW 15 20 8 11 1013.0 - 0.0
19/04:30pm 21.1 16.0 6.2 38 7.5 WSW 22 35 12 19 1012.5 - 0.0
19/04:00pm 21.6 15.1 6.3 37 7.7 WSW 30 41 16 22 1012.4 - 0.0
19/03:30pm 22.2 16.1 6.4 36 8.0 W 28 39 15 21 1012.2 - 0.0
19/03:00pm 22.6 17.3 6.8 36 8.1 WSW 24 37 13 20 1012.1 1012.1 0.0
19/02:30pm 22.3 16.2 6.5 36 8.1 W 28 39 15 21 1012.0 - 0.0
19/02:00pm 22.6 16.9 6.8 36 8.1 WSW 26 37 14 20 1012.0 - 0.0
19/01:30pm 22.5 16.0 6.7 36 8.1 WSW 30 41 16 22 1012.1 - 0.0
19/01:00pm 22.2 15.1 6.4 36 8.0 WSW 33 46 18 25 1012.4 - 0.0
19/12:30pm 22.5 16.6 7.5 38 7.8 WSW 28 41 15 22 1012.5 - 0.0
19/12:00pm 21.6 14.8 7.1 39 7.4 WSW 32 43 17 23 1012.6 1012.6 0.0
19/11:30am 21.7 16.8 6.8 38 7.6 WSW 22 33 12 18 1013.4 - 0.0
19/11:00am 20.9 15.8 7.5 42 6.9 WSW 24 37 13 20 1013.8 - 0.0
19/10:30am 20.1 15.2 7.1 43 6.6 W 22 32 12 17 1014.3 - 0.0
19/10:00am 19.4 15.1 7.8 47 5.9 W 20 26 11 14 1014.6 - 0.0
19/09:30am 18.8 15.6 8.5 51 5.3 WNW 15 22 8 12 1014.7 - 0.0
19/09:00am 17.5 15.0 8.4 55 4.7 WNW 11 15 6 8 1014.9 1014.9 0.0
19/08:30am 16.5 14.4 8.2 58 4.2 WNW 9 17 5 9 1015.1 - 0.0
19/08:00am 15.3 12.5 8.5 64 3.4 WNW 13 19 7 10 1014.9 - 0.0
19/07:30am 12.5 9.9 7.6 72 2.4 WNW 11 15 6 8 1014.9 - 0.0
19/07:00am 10.4 8.0 6.9 79 1.7 WNW 9 13 5 7 1014.7 - 0.0
19/06:30am 8.9 6.2 5.8 81 1.4 WNW 9 13 5 7 1014.3 - 0.0
19/06:00am 9.4 6.6 5.2 75 1.9 NW 9 11 5 6 1014.0 1014.0 0.0
19/05:30am 10.4 7.0 5.8 73 2.1 NW 13 19 7 10 1013.7 - 0.0
19/05:00am 10.3 7.5 5.3 71 2.3 NNW 9 15 5 8 1013.5 - 0.0
19/04:30am 11.4 8.7 5.7 68 2.6 NW 9 13 5 7 1013.3 - 0.0
19/04:00am 11.3 7.9 5.8 69 2.6 NW 13 17 7 9 1012.8 - 0.0
19/03:30am 11.4 8.6 5.3 66 2.8 NW 9 13 5 7 1012.8 - 0.0
19/03:00am 11.5 8.3 5.2 65 2.9 NW 11 13 6 7 1012.8 1012.8 0.0
19/02:30am 11.6 8.4 5.3 65 2.9 NW 11 15 6 8 1012.9 - 0.0
19/02:00am 12.0 8.6 5.9 66 2.9 NW 13 15 7 8 1013.1 - 0.0
19/01:30am 11.2 8.5 5.7 69 2.5 NNW 9 13 5 7 1013.2 - 0.0
19/01:00am 11.2 8.0 5.3 67 2.7 NNW 11 15 6 8 1013.4 - 0.0
19/12:30am 12.2 9.6 6.0 66 2.9 W 9 15 5 8 1013.5 - 0.0
19/12:00am 10.7 8.0 5.7 71 2.3 NNW 9 13 5 7 1013.7 1013.7 0.0
 
Date/Time
EST
Temp
°C
App
Temp
°C
Dew
Point
Rel
Hum
%
Delta-T
°C
Wind Press
QNH
hPa
Press
MSL
hPa
Rain
since 9 am
mm
Dir
 
Spd
km/h
Gust
km/h
Spd
kts
Gust
kts
18/11:30pm 13.4 10.0 6.0 61 3.5 W 13 20 7 11 1013.7 - 0.0
18/11:00pm 12.5 10.2 5.7 63 3.2 WNW 7 11 4 6 1013.8 - 0.0
18/10:30pm 14.4 10.4 6.5 59 3.8 W 17 24 9 13 1013.8 - 0.0
18/10:00pm 14.0 10.0 6.8 62 3.5 W 17 20 9 11 1013.9 - 0.0
18/09:30pm 14.0 10.5 7.3 64 3.3 W 15 19 8 10 1014.0 - 0.0
18/09:00pm 13.3 10.2 7.1 66 3.0 W 13 19 7 10 1013.8 1013.8 0.0
18/08:30pm 13.4 9.6 7.6 68 2.8 W 17 20 9 11 1013.6 - 0.0
18/08:00pm 13.8 10.7 7.3 65 3.2 W 13 15 7 8 1013.4 - 0.0
18/07:30pm 14.4 11.4 7.5 63 3.4 W 13 17 7 9 1013.2 - 0.0
18/07:00pm 15.4 13.0 7.2 58 4.0 W 9 13 5 7 1012.8 - 0.0
18/06:30pm 16.1 13.6 6.5 53 4.7 W 9 11 5 6 1012.3 - 0.0
18/06:00pm 16.8 13.9 6.3 50 5.1 WSW 11 15 6 8 1011.7 1011.7 0.0
18/05:30pm 18.3 12.0 5.8 44 6.1 WSW 28 39 15 21 1011.0 - 0.0
18/05:00pm 18.8 14.5 6.9 46 6.0 SW 19 28 10 15 1010.4 - 0.0
18/04:30pm 20.6 16.1 6.9 41 7.0 W 20 26 11 14 1009.8 - 0.0
18/04:00pm 21.1 16.0 7.7 42 6.9 W 24 33 13 18 1009.4 - 0.0
18/03:30pm 21.4 15.7 6.5 38 7.5 W 26 33 14 18 1009.0 - 0.0
18/03:00pm 22.1 17.7 6.7 37 7.9 WNW 19 30 10 16 1008.8 1008.8 0.0
18/02:30pm 22.3 16.8 6.1 35 8.2 WNW 24 37 13 20 1008.8 - 0.0
18/02:00pm 22.0 16.7 6.7 37 7.8 W 24 33 13 18 1008.9 - 0.0
18/01:30pm 21.2 15.3 5.9 37 7.7 W 26 39 14 21 1009.2 - 0.0
18/01:00pm 21.7 16.7 6.4 37 7.8 W 22 28 12 15 1009.6 - 0.0
18/12:30pm 20.4 15.4 6.4 40 7.0 WSW 22 35 12 19 1010.0 - 0.0
18/12:00pm 21.5 16.6 8.4 43 6.9 WNW 24 39 13 21 1010.4 1010.4 0.0
18/11:30am 20.1 15.0 7.8 45 6.3 WSW 24 33 13 18 1011.2 - 0.0
18/11:00am 18.5 13.6 7.0 47 5.8 WSW 22 32 12 17 1011.6 - 0.0
18/10:30am 19.2 16.6 7.6 47 5.9 W 11 20 6 11 1012.0 - 0.0
18/10:00am 18.3 15.3 7.7 50 5.4 W 13 26 7 14 1012.2 - 0.0
18/09:30am 18.0 13.2 7.4 50 5.3 W 22 30 12 16 1012.4 - 0.0
18/09:00am 17.5 14.8 8.9 57 4.5 WNW 13 22 7 12 1012.4 1012.4 0.2
18/08:30am 16.5 13.4 9.0 61 3.9 NNW 15 20 8 11 1012.5 - 0.2
18/08:00am 14.5 11.4 8.7 68 2.9 NNW 15 19 8 10 1012.4 - 0.2
18/07:30am 12.2 9.6 7.7 74 2.2 NNW 11 15 6 8 1012.3 - 0.2
18/07:00am 11.8 8.7 7.3 74 2.2 NNW 13 17 7 9 1012.2 - 0.2
18/06:30am 10.3 7.0 6.5 77 1.8 NNW 13 17 7 9 1012.1 - 0.2
18/06:00am 10.3 6.6 6.5 77 1.8 NNW 15 20 8 11 1011.7 1011.7 0.2
18/05:30am 9.1 5.7 6.0 81 1.4 NW 13 17 7 9 1011.5 - 0.2
18/05:00am 10.2 6.8 5.8 74 2.0 NW 13 15 7 8 1011.4 - 0.2
18/04:30am 10.3 7.0 6.3 76 1.9 NNW 13 17 7 9 1011.1 - 0.2
18/04:00am 9.6 6.2 6.1 79 1.6 NNW 13 17 7 9 1011.1 - 0.2
18/03:30am 9.1 5.7 5.7 79 1.5 NW 13 15 7 8 1011.3 - 0.2
18/03:00am 9.9 6.5 6.1 77 1.8 NNW 13 17 7 9 1011.5 1011.5 0.2
18/02:30am 9.0 6.0 6.1 82 1.3 NW 11 15 6 8 1011.5 - 0.2
18/02:00am 8.4 5.1 6.2 86 1.0 NW 13 15 7 8 1011.7 - 0.2
18/01:30am 8.3 5.0 6.4 88 0.9 WNW 13 15 7 8 1011.9 - 0.2
18/01:00am 8.0 4.6 6.1 88 0.9 WNW 13 15 7 8 1011.9 - 0.2
18/12:30am 8.4 5.1 6.4 87 0.9 WNW 13 15 7 8 1012.1 - 0.2
18/12:00am 8.5 6.0 6.5 87 0.9 W 9 15 5 8 1012.0 1012.0 0.2
 
Date/Time
EST
Temp
°C
App
Temp
°C
Dew
Point
Rel
Hum
%
Delta-T
°C
Wind Press
QNH
hPa
Press
MSL
hPa
Rain
since 9 am
mm
Dir
 
Spd
km/h
Gust
km/h
Spd
kts
Gust
kts
17/11:30pm 8.6 5.7 6.6 87 0.9 WNW 11 13 6 7 1012.2 - 0.2
17/11:00pm 9.0 6.2 6.8 86 1.0 WNW 11 13 6 7 1012.3 - 0.2
17/10:30pm 9.3 6.4 6.7 84 1.2 WNW 11 13 6 7 1012.4 - 0.2
17/10:00pm 9.9 7.4 6.4 79 1.6 WNW 9 11 5 6 1012.3 - 0.2
17/09:30pm 10.7 7.8 6.3 74 2.1 WNW 11 13 6 7 1012.2 - 0.2
17/09:00pm 11.1 8.1 6.0 71 2.4 WNW 11 13 6 7 1012.2 1012.2 0.2
17/08:30pm 10.4 7.5 6.5 77 1.8 W 11 11 6 6 1012.0 - 0.2
17/08:00pm 10.6 7.7 6.7 77 1.8 W 11 13 6 7 1011.7 - 0.2
17/07:30pm 11.6 8.3 6.3 70 2.5 W 13 13 7 7 1011.2 - 0.2
17/07:00pm 12.6 10.1 6.4 66 2.9 W 9 11 5 6 1010.8 - 0.2
17/06:30pm 14.4 11.1 4.4 51 4.6 W 11 11 6 6 1010.1 - 0.2
17/06:00pm 15.2 11.4 3.7 46 5.3 WNW 13 15 7 8 1009.7 1009.7 0.2
17/05:30pm 17.2 14.2 4.2 42 6.1 WNW 9 11 5 6 1009.1 - 0.2
17/05:00pm 19.4 15.9 3.6 35 7.5 WNW 11 17 6 9 1008.6 - 0.2

Other Formats:

Comma delimited format used in spreadsheet applications
http://www.bom.gov.au/fwo/IDQ60801/IDQ60801.94569.axf

JavaScript Object Notation format (JSON) in row-major order
http://www.bom.gov.au/fwo/IDQ60801/IDQ60801.94569.json